Time;durP1;ratioP1;P1;durP2;ratioP2;P2;SDS_P1;SDS_P2;PMS_P1;PMS_P2;Temp;Humidity;BMP_temperature;BMP_pressure;BME280_temperature;BME280_humidity;BME280_pressure;Samples;Min_cycle;Max_cycle;Signal;HPM_P1;HPM_P2
2023/07/29 00:00:40;;;;;;;2.10;1.30;;;19.70;99.90;;;;;;5051607;28;20812;-68
2023/07/29 00:03:07;;;;;;;2.40;1.70;;;19.70;99.90;;;;;;5050440;28;20428;-68
2023/07/29 00:05:34;;;;;;;2.67;1.30;;;19.70;99.90;;;;;;5050677;28;20929;-68
2023/07/29 00:08:01;;;;;;;1.83;1.40;;;19.70;99.90;;;;;;5065802;28;20427;-68
2023/07/29 00:10:32;;;;;;;1.50;1.40;;;19.70;99.90;;;;;;5058329;28;20409;-69
2023/07/29 00:12:59;;;;;;;2.45;1.42;;;19.70;99.90;;;;;;5052886;28;20439;-69
2023/07/29 00:15:25;;;;;;;1.90;1.70;;;19.70;99.90;;;;;;5049738;28;20429;-69
2023/07/29 00:17:52;;;;;;;1.70;1.60;;;19.60;99.90;;;;;;5051214;28;20466;-69
2023/07/29 00:20:19;;;;;;;2.60;1.80;;;19.60;99.90;;;;;;5054818;28;20509;-69
2023/07/29 00:22:45;;;;;;;2.63;2.30;;;19.50;99.90;;;;;;5058907;28;20420;-69
2023/07/29 00:25:12;;;;;;;2.40;2.20;;;19.50;99.90;;;;;;5079506;28;20416;-68
2023/07/29 00:27:40;;;;;;;2.45;2.25;;;19.50;99.90;;;;;;5069099;28;20492;-68
2023/07/29 00:30:08;;;;;;;3.33;2.20;;;19.40;99.90;;;;;;5069828;28;20423;-68
2023/07/29 00:32:36;;;;;;;2.50;2.30;;;19.30;99.90;;;;;;5064010;28;20420;-68
2023/07/29 00:35:03;;;;;;;3.63;2.47;;;19.30;99.90;;;;;;5054178;28;20421;-68
2023/07/29 00:37:31;;;;;;;3.67;2.50;;;19.30;99.90;;;;;;5049969;28;20424;-67
2023/07/29 00:39:58;;;;;;;2.60;2.40;;;19.20;99.90;;;;;;5059447;28;20818;-67
2023/07/29 00:42:24;;;;;;;3.95;3.08;;;19.10;99.90;;;;;;5060035;28;20436;-68
2023/07/29 00:44:52;;;;;;;3.00;2.70;;;19.10;99.90;;;;;;5048561;28;21016;-67
2023/07/29 00:47:21;;;;;;;3.63;3.20;;;19.00;99.90;;;;;;5050841;28;20694;-67
2023/07/29 00:49:48;;;;;;;4.00;3.53;;;19.00;99.90;;;;;;5047673;28;20426;-68
2023/07/29 00:52:16;;;;;;;3.47;3.17;;;19.00;99.90;;;;;;5051953;28;20432;-68
2023/07/29 00:54:43;;;;;;;3.00;2.80;;;18.90;99.90;;;;;;5052466;28;20536;-68
2023/07/29 00:57:13;;;;;;;3.70;3.40;;;18.90;99.90;;;;;;5053013;28;20386;-69
2023/07/29 00:59:40;;;;;;;3.47;3.17;;;18.90;99.90;;;;;;5069982;28;20481;-68
2023/07/29 01:02:09;;;;;;;3.80;3.50;;;18.90;99.90;;;;;;5074398;28;20423;-69
2023/07/29 01:04:36;;;;;;;3.80;3.50;;;18.90;99.90;;;;;;5071453;28;20433;-68
2023/07/29 01:07:13;;;;;;;3.55;3.30;;;18.90;99.90;;;;;;5056383;28;20409;-68
2023/07/29 01:09:51;;;;;;;3.95;3.55;;;18.90;99.90;;;;;;5048906;28;20420;-69
2023/07/29 01:12:24;;;;;;;3.88;3.58;;;18.90;99.90;;;;;;5047554;28;20415;-68
2023/07/29 01:14:56;;;;;;;3.70;3.40;;;18.90;99.90;;;;;;5054084;28;20515;-70
2023/07/29 01:17:30;;;;;;;3.88;3.58;;;18.90;99.90;;;;;;5050435;28;20436;-68
2023/07/29 01:20:03;;;;;;;3.78;3.47;;;18.90;99.90;;;;;;5050705;28;20578;-69
2023/07/29 01:22:31;;;;;;;4.20;3.90;;;18.90;99.90;;;;;;5052419;28;20420;-68
2023/07/29 01:24:59;;;;;;;4.45;3.90;;;18.90;99.90;;;;;;5048036;28;20413;-70
2023/07/29 01:27:26;;;;;;;4.68;4.28;;;18.90;99.90;;;;;;5047626;28;20421;-68
2023/07/29 01:29:54;;;;;;;4.20;3.90;;;18.90;99.90;;;;;;5057919;28;20587;-69
2023/07/29 01:32:26;;;;;;;4.70;4.30;;;19.00;99.90;;;;;;5047947;28;20927;-68
2023/07/29 01:35:01;;;;;;;4.35;4.00;;;19.00;99.90;;;;;;5048847;28;20405;-67
2023/07/29 01:37:31;;;;;;;4.47;4.07;;;19.00;99.90;;;;;;5054716;28;20422;-69
2023/07/29 01:40:00;;;;;;;4.30;3.90;;;19.00;99.90;;;;;;5054545;28;20912;-68
2023/07/29 01:42:29;;;;;;;4.53;4.03;;;19.00;99.90;;;;;;5056458;28;20788;-68
2023/07/29 01:44:56;;;;;;;5.15;4.60;;;19.00;99.90;;;;;;5052219;28;20441;-68
2023/07/29 01:47:23;;;;;;;4.90;4.40;;;19.00;99.90;;;;;;5054942;28;20431;-69
2023/07/29 01:49:50;;;;;;;4.75;4.35;;;19.00;99.90;;;;;;5060840;28;20501;-67
2023/07/29 01:52:16;;;;;;;5.53;4.90;;;18.90;99.90;;;;;;5052950;28;20455;-67
2023/07/29 01:54:43;;;;;;;5.15;4.65;;;18.90;99.90;;;;;;5061013;28;20419;-68
2023/07/29 01:57:11;;;;;;;4.95;4.45;;;18.90;99.90;;;;;;5063568;28;20408;-68
2023/07/29 01:59:38;;;;;;;5.20;4.80;;;18.90;99.90;;;;;;5055995;28;20448;-68
2023/07/29 02:02:04;;;;;;;7.75;5.47;;;18.90;99.90;;;;;;5058817;28;20454;-67
2023/07/29 02:04:31;;;;;;;11.80;5.78;;;18.90;99.90;;;;;;5056509;28;20435;-67
2023/07/29 02:06:58;;;;;;;12.80;6.60;;;18.80;99.90;;;;;;5054121;28;20443;-68
2023/07/29 02:09:25;;;;;;;9.10;6.60;;;18.70;99.90;;;;;;5052402;28;20424;-67
2023/07/29 02:11:52;;;;;;;11.27;6.60;;;18.60;99.90;;;;;;5050870;28;20453;-67
2023/07/29 02:14:20;;;;;;;6.18;5.57;;;18.60;99.90;;;;;;5051483;28;20429;-67
2023/07/29 02:16:47;;;;;;;4.43;3.58;;;18.40;99.90;;;;;;5052820;28;20409;-67
2023/07/29 02:19:13;;;;;;;3.92;3.20;;;18.30;99.90;;;;;;5050797;28;20436;-67
2023/07/29 02:21:40;;;;;;;3.20;2.60;;;18.20;99.90;;;;;;5053146;28;20826;-67
2023/07/29 02:24:07;;;;;;;3.47;2.95;;;18.20;99.90;;;;;;5063966;28;20418;-69
2023/07/29 02:26:34;;;;;;;3.25;2.50;;;18.10;99.90;;;;;;5055618;28;20429;-68
2023/07/29 02:29:00;;;;;;;2.97;2.30;;;18.10;99.90;;;;;;5072453;28;20420;-68
2023/07/29 02:31:28;;;;;;;2.40;2.20;;;18.00;99.90;;;;;;5057347;28;20421;-68
2023/07/29 02:33:55;;;;;;;2.13;1.65;;;17.90;99.90;;;;;;5058982;28;20413;-68
2023/07/29 02:36:22;;;;;;;2.30;2.10;;;17.90;99.90;;;;;;5059186;28;20437;-66
2023/07/29 02:38:49;;;;;;;2.10;1.90;;;17.90;99.90;;;;;;5072710;28;20411;-68
2023/07/29 02:41:15;;;;;;;2.22;2.03;;;17.90;99.90;;;;;;5066766;28;20417;-69
2023/07/29 02:43:43;;;;;;;3.10;2.33;;;17.90;99.90;;;;;;5055474;28;20442;-67
2023/07/29 02:46:10;;;;;;;2.22;1.90;;;17.80;99.90;;;;;;5058019;28;20428;-68
2023/07/29 02:48:38;;;;;;;2.30;1.90;;;17.80;99.90;;;;;;5078547;28;20940;-67
2023/07/29 02:51:05;;;;;;;2.20;2.00;;;17.80;99.90;;;;;;5069899;28;20999;-67
2023/07/29 02:53:32;;;;;;;2.55;2.17;;;17.80;99.90;;;;;;5059848;28;20473;-68
2023/07/29 02:55:58;;;;;;;2.83;2.40;;;17.70;99.90;;;;;;5056519;28;20417;-67
2023/07/29 02:58:26;;;;;;;2.35;2.15;;;17.70;99.90;;;;;;5054489;28;20444;-68
2023/07/29 03:00:53;;;;;;;2.92;2.40;;;17.70;99.90;;;;;;5050801;28;20807;-67
2023/07/29 03:03:19;;;;;;;2.67;2.35;;;17.80;99.90;;;;;;5051409;28;20796;-68
2023/07/29 03:05:47;;;;;;;3.15;2.55;;;17.80;99.90;;;;;;5050785;28;20449;-67
2023/07/29 03:08:14;;;;;;;3.70;2.30;;;17.80;99.90;;;;;;5054382;28;20919;-67
2023/07/29 03:10:42;;;;;;;3.70;2.30;;;17.80;99.90;;;;;;5051038;28;20417;-67
2023/07/29 03:13:08;;;;;;;3.10;2.10;;;17.80;99.90;;;;;;5051882;28;20479;-67
2023/07/29 03:15:35;;;;;;;2.60;2.38;;;17.80;99.90;;;;;;5058324;28;20440;-67
2023/07/29 03:18:02;;;;;;;2.65;2.33;;;17.80;99.90;;;;;;5055974;28;20522;-68
2023/07/29 03:20:28;;;;;;;2.38;2.17;;;17.80;99.90;;;;;;5049479;28;20425;-68
2023/07/29 03:22:56;;;;;;;3.60;2.57;;;17.80;99.90;;;;;;5047555;28;20493;-68
2023/07/29 03:25:23;;;;;;;2.60;2.20;;;17.80;99.90;;;;;;5051179;28;20627;-67
2023/07/29 03:27:50;;;;;;;2.23;2.00;;;17.80;99.90;;;;;;5050048;28;20497;-67
2023/07/29 03:30:20;;;;;;;3.53;2.28;;;17.80;99.90;;;;;;5057099;28;20427;-67
2023/07/29 03:32:47;;;;;;;2.88;2.20;;;17.80;99.90;;;;;;5053981;28;20421;-66
2023/07/29 03:35:14;;;;;;;2.40;2.10;;;17.80;99.90;;;;;;5052113;28;20442;-67
2023/07/29 03:37:41;;;;;;;3.15;2.10;;;17.80;99.90;;;;;;5068618;28;20421;-67
2023/07/29 03:40:10;;;;;;;2.78;1.98;;;17.80;99.90;;;;;;5083440;28;20421;-68
2023/07/29 03:42:36;;;;;;;2.30;2.00;;;17.80;99.90;;;;;;5073619;28;20405;-68
2023/07/29 03:45:04;;;;;;;2.50;2.10;;;17.80;99.90;;;;;;5061433;28;20440;-68
2023/07/29 03:47:31;;;;;;;2.60;2.22;;;17.70;99.90;;;;;;5050968;28;20430;-68
2023/07/29 03:49:57;;;;;;;2.92;2.30;;;17.70;99.90;;;;;;5046429;28;20923;-68
2023/07/29 03:52:24;;;;;;;2.60;2.30;;;17.80;99.90;;;;;;5050488;28;20418;-68
2023/07/29 03:54:51;;;;;;;3.00;2.70;;;17.80;99.90;;;;;;5057284;28;20430;-67
2023/07/29 03:57:19;;;;;;;3.42;2.90;;;17.80;99.90;;;;;;5052118;28;20899;-67
2023/07/29 03:59:45;;;;;;;2.65;2.38;;;17.90;99.90;;;;;;5051900;28;20426;-67
2023/07/29 04:02:12;;;;;;;5.30;2.90;;;17.80;99.90;;;;;;5058482;28;20415;-67
2023/07/29 04:04:39;;;;;;;3.42;2.70;;;17.80;99.90;;;;;;5057674;28;20420;-67
2023/07/29 04:07:07;;;;;;;3.20;2.90;;;17.80;99.90;;;;;;5050547;28;20937;-67
2023/07/29 04:09:33;;;;;;;3.20;2.90;;;17.80;99.90;;;;;;5049311;28;20417;-67
2023/07/29 04:12:00;;;;;;;3.28;2.97;;;17.80;99.90;;;;;;5050407;28;20439;-67
2023/07/29 04:14:28;;;;;;;4.85;3.58;;;17.80;99.90;;;;;;5055232;28;20508;-68
2023/07/29 04:16:55;;;;;;;4.43;3.95;;;17.70;99.90;;;;;;5050900;28;20417;-67
2023/07/29 04:19:21;;;;;;;4.47;3.85;;;17.70;99.90;;;;;;5056343;28;20413;-67
2023/07/29 04:21:50;;;;;;;4.05;3.65;;;17.70;99.90;;;;;;5054295;28;20901;-67
2023/07/29 04:24:17;;;;;;;4.28;3.88;;;17.70;99.90;;;;;;5049990;28;20420;-67
2023/07/29 04:26:44;;;;;;;4.30;3.90;;;17.70;99.90;;;;;;5049272;28;20413;-68
2023/07/29 04:29:11;;;;;;;4.72;4.22;;;17.70;99.90;;;;;;5056668;28;20433;-68
2023/07/29 04:31:39;;;;;;;4.55;4.15;;;17.70;99.90;;;;;;5049302;28;20907;-68
2023/07/29 04:34:06;;;;;;;4.35;3.95;;;17.70;99.90;;;;;;5048773;28;20422;-68
2023/07/29 04:36:34;;;;;;;4.38;4.00;;;17.70;99.90;;;;;;5053717;28;21492;-66
2023/07/29 04:39:01;;;;;;;5.60;4.30;;;17.70;99.90;;;;;;5050630;28;20429;-68
2023/07/29 04:41:28;;;;;;;4.60;4.20;;;17.70;99.90;;;;;;5054233;28;20433;-68
2023/07/29 04:43:54;;;;;;;4.77;4.27;;;17.70;99.90;;;;;;5049272;28;20444;-68
2023/07/29 04:46:21;;;;;;;4.50;4.10;;;17.70;99.90;;;;;;5052934;28;20474;-68
2023/07/29 04:48:49;;;;;;;4.72;4.32;;;17.70;99.90;;;;;;5055929;28;20411;-68
2023/07/29 04:51:16;;;;;;;4.70;4.30;;;17.70;99.90;;;;;;5056621;28;20914;-68
2023/07/29 04:53:42;;;;;;;4.80;4.30;;;17.70;99.90;;;;;;5047688;28;20432;-67
2023/07/29 04:56:09;;;;;;;7.60;4.75;;;17.70;99.90;;;;;;5050720;28;20424;-67
2023/07/29 04:58:36;;;;;;;5.20;4.70;;;17.80;99.90;;;;;;5048342;28;20425;-68
2023/07/29 05:01:02;;;;;;;6.50;5.60;;;17.80;99.90;;;;;;5048709;28;20791;-68
2023/07/29 05:03:29;;;;;;;5.60;4.70;;;17.80;99.90;;;;;;5057402;28;20949;-67
2023/07/29 05:05:59;;;;;;;5.70;5.20;;;17.80;99.90;;;;;;5051250;28;20435;-68
2023/07/29 05:08:25;;;;;;;5.70;5.20;;;17.80;99.90;;;;;;5048708;28;20526;-67
2023/07/29 05:10:53;;;;;;;5.60;4.95;;;17.80;99.90;;;;;;5048589;28;20429;-67
2023/07/29 05:13:20;;;;;;;5.60;5.10;;;17.80;99.90;;;;;;5055253;28;20437;-68
2023/07/29 05:15:48;;;;;;;5.95;5.35;;;17.80;99.90;;;;;;5062978;28;20573;-68
2023/07/29 05:18:15;;;;;;;5.30;4.90;;;17.90;99.90;;;;;;5045690;28;20420;-66
2023/07/29 05:20:42;;;;;;;5.45;5.05;;;17.90;99.90;;;;;;5048430;28;20425;-68
2023/07/29 05:23:10;;;;;;;6.07;5.40;;;17.90;99.90;;;;;;5048657;28;20422;-67
2023/07/29 05:25:36;;;;;;;6.32;5.72;;;18.00;99.90;;;;;;5046084;28;20433;-68
2023/07/29 05:28:04;;;;;;;6.00;5.40;;;18.00;99.90;;;;;;5047399;28;20455;-67
2023/07/29 05:30:31;;;;;;;5.80;5.20;;;18.10;99.90;;;;;;5048760;28;20416;-67
2023/07/29 05:32:58;;;;;;;5.90;5.40;;;18.10;99.90;;;;;;5048882;28;20444;-67
2023/07/29 05:35:25;;;;;;;6.18;5.50;;;18.10;99.90;;;;;;5055880;28;20801;-67
2023/07/29 05:37:52;;;;;;;5.88;5.20;;;18.10;99.90;;;;;;5079328;22;20456;-72
2023/07/29 05:40:20;;;;;;;5.90;5.20;;;18.10;99.90;;;;;;5044540;28;20431;-72
2023/07/29 05:42:47;;;;;;;5.40;4.90;;;18.10;99.90;;;;;;5048707;28;20461;-72
2023/07/29 05:45:14;;;;;;;5.78;5.28;;;18.00;99.90;;;;;;5063301;23;20658;-72
2023/07/29 05:47:41;;;;;;;5.90;5.40;;;18.00;99.90;;;;;;5063867;28;20407;-72
2023/07/29 05:50:09;;;;;;;5.72;5.22;;;18.00;99.90;;;;;;5062762;28;20466;-72
2023/07/29 05:52:36;;;;;;;5.88;5.38;;;18.00;99.90;;;;;;5063241;28;20412;-72
2023/07/29 05:55:03;;;;;;;5.80;5.30;;;18.00;99.90;;;;;;5070510;28;20847;-72
2023/07/29 05:57:31;;;;;;;5.50;5.00;;;18.10;99.90;;;;;;5062033;28;20908;-72
2023/07/29 05:59:57;;;;;;;5.00;4.60;;;18.10;99.90;;;;;;5061984;28;20431;-72
2023/07/29 06:02:24;;;;;;;5.60;5.00;;;18.20;99.90;;;;;;5062997;28;20479;-73
2023/07/29 06:04:51;;;;;;;5.70;5.20;;;18.10;99.90;;;;;;5063097;28;20434;-73
2023/07/29 06:07:18;;;;;;;5.00;4.60;;;18.20;99.90;;;;;;5062742;28;20488;-73
2023/07/29 06:09:45;;;;;;;5.20;4.40;;;18.10;99.90;;;;;;5063039;28;20416;-73
2023/07/29 06:12:11;;;;;;;4.73;4.33;;;18.20;99.90;;;;;;5061921;28;20758;-73
2023/07/29 06:14:39;;;;;;;4.20;3.80;;;18.10;99.90;;;;;;5063060;28;20423;-72
2023/07/29 06:17:07;;;;;;;5.03;4.13;;;18.10;99.90;;;;;;5054209;28;20888;-73
2023/07/29 06:19:33;;;;;;;4.35;3.95;;;18.10;99.90;;;;;;5060994;28;20475;-73
2023/07/29 06:22:01;;;;;;;4.40;4.00;;;18.20;99.90;;;;;;5062583;28;20569;-73
2023/07/29 06:24:27;;;;;;;4.40;4.00;;;18.20;99.90;;;;;;5062257;28;20427;-73
2023/07/29 06:26:54;;;;;;;4.78;4.10;;;18.20;99.90;;;;;;5066092;28;20426;-73
2023/07/29 06:29:21;;;;;;;4.57;3.78;;;18.20;99.90;;;;;;5065826;28;20534;-73
2023/07/29 06:31:51;;;;;;;4.20;3.50;;;18.30;99.90;;;;;;5066210;28;20866;-71
2023/07/29 06:34:17;;;;;;;4.10;3.30;;;18.30;99.90;;;;;;5066970;28;20528;-71
2023/07/29 06:36:45;;;;;;;5.25;3.20;;;18.30;99.90;;;;;;5065633;28;20495;-73
2023/07/29 06:39:12;;;;;;;3.63;3.25;;;18.30;99.90;;;;;;5064109;28;20435;-73
2023/07/29 06:41:38;;;;;;;4.22;3.20;;;18.30;99.90;;;;;;5061291;28;20482;-73
2023/07/29 06:44:05;;;;;;;4.10;2.80;;;18.30;99.90;;;;;;5066068;28;20426;-73
2023/07/29 06:46:32;;;;;;;3.53;3.00;;;18.30;99.90;;;;;;5066511;28;20426;-73
2023/07/29 06:49:00;;;;;;;2.80;2.60;;;18.30;99.90;;;;;;5059613;28;20430;-71
2023/07/29 06:51:29;;;;;;;2.72;2.50;;;18.30;99.90;;;;;;5066195;28;20428;-70
2023/07/29 06:53:56;;;;;;;3.00;2.50;;;18.30;99.90;;;;;;5073366;28;20450;-71
2023/07/29 06:56:22;;;;;;;2.88;2.30;;;18.40;99.90;;;;;;5066228;28;20571;-71
2023/07/29 06:58:49;;;;;;;3.40;2.38;;;18.40;99.90;;;;;;5069469;28;20481;-70
2023/07/29 07:01:16;;;;;;;3.00;2.70;;;18.50;99.90;;;;;;5065510;28;20779;-71
2023/07/29 07:03:42;;;;;;;3.00;2.40;;;18.60;99.90;;;;;;5066310;28;20439;-74
2023/07/29 07:06:10;;;;;;;2.40;2.20;;;18.70;99.90;;;;;;5065806;28;20894;-70
2023/07/29 07:08:37;;;;;;;2.20;1.92;;;18.80;99.90;;;;;;5065790;28;20418;-71
2023/07/29 07:11:04;;;;;;;3.58;2.25;;;18.90;99.90;;;;;;5064861;28;20427;-71
2023/07/29 07:13:30;;;;;;;2.80;2.30;;;18.90;99.90;;;;;;5064014;28;20431;-70
2023/07/29 07:15:58;;;;;;;3.08;2.20;;;18.90;99.90;;;;;;5063472;28;20427;-70
2023/07/29 07:18:24;;;;;;;2.50;2.22;;;18.90;99.90;;;;;;5066648;28;20418;-72
2023/07/29 07:20:51;;;;;;;3.90;2.60;;;19.00;99.90;;;;;;5065589;28;20428;-71
2023/07/29 07:23:20;;;;;;;3.55;2.47;;;19.00;99.90;;;;;;5065102;28;20539;-72
2023/07/29 07:25:46;;;;;;;2.60;2.08;;;19.10;99.90;;;;;;5070461;28;20446;-72
2023/07/29 07:28:13;;;;;;;2.35;2.15;;;19.10;99.90;;;;;;5065552;28;20415;-72
2023/07/29 07:30:41;;;;;;;2.70;2.40;;;19.10;99.90;;;;;;5066559;28;20419;-72
2023/07/29 07:33:08;;;;;;;2.50;2.10;;;19.10;99.90;;;;;;5065645;28;20502;-72
2023/07/29 07:35:35;;;;;;;2.95;2.08;;;19.10;99.90;;;;;;5065310;28;20412;-72
2023/07/29 07:38:03;;;;;;;2.45;2.17;;;19.10;99.90;;;;;;5062942;28;20419;-72
2023/07/29 07:40:32;;;;;;;1.73;1.63;;;19.20;99.90;;;;;;5064468;28;20424;-72
2023/07/29 07:42:58;;;;;;;2.88;2.17;;;19.20;99.90;;;;;;5065110;28;20416;-72
2023/07/29 07:45:25;;;;;;;3.28;1.90;;;19.30;99.90;;;;;;5065206;28;20434;-72
2023/07/29 07:47:53;;;;;;;2.60;2.00;;;19.30;99.90;;;;;;5064892;28;20519;-71
2023/07/29 07:50:20;;;;;;;2.75;2.00;;;19.40;99.90;;;;;;5063843;28;20974;-72
2023/07/29 07:52:47;;;;;;;2.05;1.60;;;19.40;99.90;;;;;;5065145;28;20498;-72
2023/07/29 07:55:14;;;;;;;2.00;1.80;;;19.50;99.90;;;;;;5063065;28;20443;-72
2023/07/29 07:57:42;;;;;;;2.40;1.95;;;19.40;99.90;;;;;;5064936;28;20522;-72
2023/07/29 08:00:10;;;;;;;1.90;1.80;;;19.40;99.90;;;;;;5062438;28;20427;-72
2023/07/29 08:02:37;;;;;;;1.95;1.77;;;19.40;99.90;;;;;;5059307;28;20428;-72
2023/07/29 08:05:04;;;;;;;2.70;1.90;;;19.40;99.90;;;;;;5065795;28;20427;-72
2023/07/29 08:07:31;;;;;;;4.38;1.83;;;19.30;99.90;;;;;;5064068;28;20427;-71
2023/07/29 08:09:57;;;;;;;2.75;1.70;;;19.30;99.90;;;;;;5063446;28;20439;-72
2023/07/29 08:12:24;;;;;;;2.10;1.90;;;19.20;99.90;;;;;;5064469;28;20427;-71
2023/07/29 08:14:52;;;;;;;2.40;1.80;;;19.20;99.90;;;;;;5064340;28;20866;-70
2023/07/29 08:17:19;;;;;;;2.40;1.90;;;19.30;99.90;;;;;;5059067;28;20438;-70
2023/07/29 08:19:45;;;;;;;3.63;1.80;;;19.40;99.90;;;;;;5064157;28;20912;-70
2023/07/29 08:22:12;;;;;;;1.93;1.70;;;19.50;99.90;;;;;;5064400;28;20752;-71
2023/07/29 08:24:39;;;;;;;1.90;1.42;;;19.60;99.90;;;;;;5064437;28;20880;-70
2023/07/29 08:27:06;;;;;;;2.10;1.50;;;19.70;99.90;;;;;;5064671;28;20655;-71
2023/07/29 08:29:33;;;;;;;2.55;1.60;;;19.70;99.90;;;;;;5062640;28;20438;-73
2023/07/29 08:32:01;;;;;;;3.20;1.80;;;19.80;99.90;;;;;;5062564;28;20450;-73
2023/07/29 08:34:28;;;;;;;3.60;1.60;;;19.90;99.90;;;;;;5064290;28;20419;-72
2023/07/29 08:36:55;;;;;;;1.60;1.50;;;20.10;99.90;;;;;;5063320;28;20758;-72
2023/07/29 08:39:22;;;;;;;1.70;1.37;;;20.30;99.90;;;;;;5063603;28;20427;-73
2023/07/29 08:41:58;;;;;;;1.80;1.20;;;20.40;99.90;;;;;;5061620;28;20496;-73
2023/07/29 08:44:28;;;;;;;1.83;1.25;;;20.50;99.20;;;;;;5063933;28;20412;-74
2023/07/29 08:46:57;;;;;;;1.40;1.30;;;20.60;98.10;;;;;;5063528;28;20416;-74
2023/07/29 08:49:25;;;;;;;1.27;1.17;;;20.50;97.60;;;;;;5055955;28;20534;-74
2023/07/29 08:51:54;;;;;;;1.88;1.10;;;20.50;97.10;;;;;;5063940;28;20439;-73
2023/07/29 08:54:21;;;;;;;2.10;1.15;;;20.40;96.90;;;;;;5055916;28;20446;-73
2023/07/29 08:56:48;;;;;;;1.90;1.15;;;20.30;97.30;;;;;;5063733;28;21060;-71
2023/07/29 08:59:16;;;;;;;2.60;1.00;;;20.20;96.90;;;;;;5064275;28;20442;-71
2023/07/29 09:01:44;;;;;;;1.60;1.00;;;20.20;96.20;;;;;;5064130;28;20661;-73
2023/07/29 09:04:11;;;;;;;2.03;1.17;;;20.30;96.70;;;;;;5068992;28;20898;-71
2023/07/29 09:06:40;;;;;;;2.00;1.15;;;20.40;96.50;;;;;;5062826;28;20420;-71
2023/07/29 09:09:08;;;;;;;2.40;1.20;;;20.50;95.70;;;;;;5063539;28;20875;-73
2023/07/29 09:11:36;;;;;;;1.90;1.10;;;20.60;95.80;;;;;;5062856;28;20705;-73
2023/07/29 09:14:02;;;;;;;1.30;1.10;;;20.60;94.50;;;;;;5063021;28;20913;-72
2023/07/29 09:16:30;;;;;;;1.20;1.00;;;20.50;94.50;;;;;;5062540;28;21122;-73
2023/07/29 09:19:01;;;;;;;2.53;1.23;;;20.40;95.60;;;;;;5062233;28;20451;-72
2023/07/29 09:21:28;;;;;;;2.20;1.20;;;20.40;95.50;;;;;;5063545;28;20423;-71
2023/07/29 09:23:57;;;;;;;2.03;1.10;;;20.20;94.70;;;;;;5063489;28;20473;-71
2023/07/29 09:26:24;;;;;;;1.93;1.30;;;20.10;95.50;;;;;;5062976;28;20420;-71
2023/07/29 09:28:53;;;;;;;2.38;1.30;;;20.10;96.30;;;;;;5063455;28;20471;-71
2023/07/29 09:31:21;;;;;;;2.30;1.30;;;20.10;98.20;;;;;;5060559;28;20881;-70
2023/07/29 09:33:48;;;;;;;2.63;1.30;;;20.00;98.60;;;;;;5061989;28;20554;-70
2023/07/29 09:36:14;;;;;;;1.88;1.15;;;20.00;99.20;;;;;;5063505;28;20461;-69
2023/07/29 09:38:41;;;;;;;1.80;1.30;;;20.00;98.20;;;;;;5062729;28;20412;-70
2023/07/29 09:41:13;;;;;;;2.00;1.47;;;19.90;97.50;;;;;;5062240;28;20427;-69
2023/07/29 09:43:40;;;;;;;1.60;1.40;;;19.90;98.00;;;;;;5063644;28;20433;-71
2023/07/29 09:46:07;;;;;;;2.17;1.33;;;19.90;99.00;;;;;;5064039;28;20420;-72
2023/07/29 09:48:35;;;;;;;1.67;1.50;;;20.00;98.80;;;;;;5064391;28;20953;-72
2023/07/29 09:51:11;;;;;;;2.70;1.30;;;20.10;98.30;;;;;;5062993;28;20513;-70
2023/07/29 09:53:41;;;;;;;2.20;1.50;;;20.20;98.70;;;;;;5055505;28;20469;-70
2023/07/29 09:56:09;;;;;;;1.80;1.30;;;20.30;98.70;;;;;;5061947;28;20451;-70
2023/07/29 09:58:38;;;;;;;2.00;1.25;;;20.50;98.50;;;;;;5062286;28;20782;-70
2023/07/29 10:01:04;;;;;;;1.80;1.30;;;20.70;97.20;;;;;;5066223;28;21008;-70
2023/07/29 10:03:32;;;;;;;1.33;1.23;;;20.80;96.70;;;;;;5066896;28;20845;-70
2023/07/29 10:06:01;;;;;;;1.40;1.00;;;21.00;95.10;;;;;;5067496;28;20766;-70
2023/07/29 10:08:29;;;;;;;1.90;1.20;;;21.20;93.80;;;;;;5066350;28;20438;-70
2023/07/29 10:10:56;;;;;;;1.63;1.30;;;21.40;93.40;;;;;;5066799;28;20530;-70
2023/07/29 10:13:26;;;;;;;1.40;1.00;;;21.60;93.00;;;;;;5064685;28;20426;-70
2023/07/29 10:15:55;;;;;;;1.90;1.30;;;21.80;92.50;;;;;;5067537;28;20437;-70
2023/07/29 10:18:23;;;;;;;2.10;1.25;;;22.00;92.40;;;;;;5064848;28;20534;-70
2023/07/29 10:20:52;;;;;;;1.52;1.10;;;22.10;91.80;;;;;;5066418;28;20763;-70
2023/07/29 10:23:19;;;;;;;1.70;1.30;;;22.20;91.50;;;;;;5066568;28;20424;-70
2023/07/29 10:25:49;;;;;;;1.50;1.35;;;22.20;91.10;;;;;;5066878;28;20476;-72
2023/07/29 10:28:18;;;;;;;1.80;1.20;;;22.20;91.10;;;;;;5066457;28;20420;-72
2023/07/29 10:30:46;;;;;;;1.80;1.30;;;22.10;90.90;;;;;;5066493;28;20889;-70
2023/07/29 10:33:14;;;;;;;2.00;1.30;;;21.90;91.00;;;;;;5066165;28;20424;-70
2023/07/29 10:35:42;;;;;;;2.75;1.20;;;21.70;91.20;;;;;;5068146;28;20522;-72
2023/07/29 10:38:09;;;;;;;1.42;1.20;;;21.50;90.40;;;;;;5064385;28;20447;-70
2023/07/29 10:40:46;;;;;;;1.70;1.35;;;21.20;90.90;;;;;;5066083;28;20432;-71
2023/07/29 10:43:19;;;;;;;1.90;1.30;;;21.00;92.90;;;;;;5067393;28;20491;-70
2023/07/29 10:45:47;;;;;;;1.60;1.30;;;20.90;94.60;;;;;;5062905;28;20416;-70
2023/07/29 10:48:40;;;;;;;1.83;1.20;;;20.70;95.70;;;;;;5065200;28;20428;-70
2023/07/29 10:51:24;;;;;;;1.77;1.30;;;20.30;95.80;;;;;;5064439;28;20438;-69
2023/07/29 10:53:54;;;;;;;2.22;1.40;;;20.00;96.60;;;;;;5066873;28;20407;-69
2023/07/29 10:56:27;;;;;;;1.80;1.50;;;19.90;98.60;;;;;;5060309;28;20921;-70
2023/07/29 10:58:56;;;;;;;2.10;1.30;;;19.80;99.60;;;;;;5066684;28;20421;-70
2023/07/29 11:01:29;;;;;;;2.35;1.70;;;19.90;99.50;;;;;;5066344;28;20510;-70
2023/07/29 11:04:27;;;;;;;1.88;1.40;;;20.00;99.90;;;;;;5065670;28;20430;-70
2023/07/29 11:07:23;;;;;;;2.10;1.40;;;20.10;99.90;;;;;;5066809;28;20877;-70
2023/07/29 11:10:00;;;;;;;2.10;1.70;;;20.20;99.50;;;;;;5062215;28;20432;-70
2023/07/29 11:12:42;;;;;;;2.47;1.70;;;20.40;99.90;;;;;;5058837;28;20451;-70
2023/07/29 11:15:20;;;;;;;3.00;1.70;;;20.50;98.70;;;;;;5065833;28;20503;-70
2023/07/29 11:17:50;;;;;;;5.90;1.85;;;20.50;99.50;;;;;;5066145;28;20427;-70
2023/07/29 11:20:18;;;;;;;3.25;1.80;;;20.50;98.00;;;;;;5066053;28;20449;-70
2023/07/29 11:22:45;;;;;;;2.65;1.60;;;20.50;97.90;;;;;;5066427;28;20438;-70
2023/07/29 11:25:14;;;;;;;3.60;2.13;;;20.50;99.80;;;;;;5065605;28;21086;-71
2023/07/29 11:27:41;;;;;;;2.17;1.80;;;20.60;97.40;;;;;;5066409;28;20430;-70
2023/07/29 11:30:10;;;;;;;2.50;2.00;;;20.50;98.10;;;;;;5065835;28;20419;-70
2023/07/29 11:32:39;;;;;;;3.28;2.20;;;20.70;98.40;;;;;;5065948;28;20407;-71
2023/07/29 11:35:09;;;;;;;3.80;2.20;;;20.80;98.40;;;;;;5064705;28;20407;-71
2023/07/29 11:37:37;;;;;;;2.40;1.70;;;21.00;98.00;;;;;;5065687;28;20438;-70
2023/07/29 11:40:05;;;;;;;2.30;1.60;;;21.10;96.00;;;;;;5079912;22;20881;-67
2023/07/29 11:42:33;;;;;;;2.20;1.70;;;21.30;94.80;;;;;;5039670;28;20436;-66
2023/07/29 11:44:59;;;;;;;1.88;1.45;;;21.50;94.50;;;;;;5049280;28;20425;-67
2023/07/29 11:47:26;;;;;;;1.50;1.10;;;21.80;95.60;;;;;;5051676;28;20425;-67
2023/07/29 11:49:53;;;;;;;1.30;1.10;;;22.30;93.20;;;;;;5048464;28;20486;-66
2023/07/29 11:52:21;;;;;;;1.50;1.20;;;22.50;91.50;;;;;;5036721;28;20418;-68
2023/07/29 11:54:50;;;;;;;1.20;1.10;;;22.80;92.40;;;;;;5039681;28;20429;-67
2023/07/29 11:57:19;;;;;;;1.23;0.95;;;23.30;90.70;;;;;;5042621;28;20437;-68
2023/07/29 11:59:47;;;;;;;1.20;1.00;;;23.70;90.00;;;;;;5040579;28;20423;-67
2023/07/29 12:02:16;;;;;;;1.30;1.08;;;23.90;88.70;;;;;;5037273;28;20429;-67
2023/07/29 12:04:45;;;;;;;1.20;1.00;;;24.10;87.10;;;;;;5037976;28;20423;-67
2023/07/29 12:07:13;;;;;;;1.10;0.80;;;24.10;81.20;;;;;;5039011;28;20507;-68
2023/07/29 12:09:43;;;;;;;1.10;0.90;;;23.90;82.60;;;;;;5041748;28;20429;-68
2023/07/29 12:12:10;;;;;;;1.30;1.10;;;24.00;82.90;;;;;;5037635;28;20440;-68
2023/07/29 12:14:37;;;;;;;1.30;1.00;;;24.20;83.10;;;;;;5038392;28;20441;-68
2023/07/29 12:17:06;;;;;;;1.25;1.00;;;24.40;84.10;;;;;;5038080;28;20438;-68
2023/07/29 12:19:34;;;;;;;1.00;0.90;;;24.60;80.90;;;;;;5040256;28;20780;-69
2023/07/29 12:22:01;;;;;;;0.98;0.80;;;24.90;75.10;;;;;;5039660;28;20473;-69
2023/07/29 12:24:28;;;;;;;1.10;0.80;;;25.00;74.60;;;;;;5043366;28;20889;-67
2023/07/29 12:26:56;;;;;;;1.70;0.80;;;25.20;73.50;;;;;;5037797;28;21040;-68
2023/07/29 12:29:23;;;;;;;1.10;0.90;;;25.40;73.40;;;;;;5046624;28;20897;-69
2023/07/29 12:31:57;;;;;;;1.10;0.70;;;25.80;73.30;;;;;;5042009;28;20686;-69
2023/07/29 12:34:26;;;;;;;0.90;0.80;;;26.20;70.50;;;;;;5037775;28;20876;-68
2023/07/29 12:36:54;;;;;;;0.80;0.70;;;26.30;69.00;;;;;;5044591;28;20931;-68
2023/07/29 12:39:22;;;;;;;0.93;0.80;;;26.40;67.20;;;;;;5038823;28;20458;-67
2023/07/29 12:41:50;;;;;;;1.00;0.90;;;26.50;68.50;;;;;;5037506;28;20426;-69
2023/07/29 12:44:19;;;;;;;0.90;0.70;;;26.80;69.60;;;;;;5037588;28;20431;-67
2023/07/29 12:46:46;;;;;;;0.90;0.80;;;27.20;61.70;;;;;;5038754;28;20422;-67
2023/07/29 12:49:13;;;;;;;1.00;0.90;;;27.50;61.20;;;;;;5037983;28;20433;-66